Time;durP1;ratioP1;P1;durP2;ratioP2;P2;SDS_P1;SDS_P2;PMS_P1;PMS_P2;Temp;Humidity;BMP_temperature;BMP_pressure;BME280_temperature;BME280_humidity;BME280_pressure;Samples;Min_cycle;Max_cycle;Signal;HPM_P1;HPM_P2
2021/07/26 00:00:21;;;;;;;18.00;14.38;;;;;;;17.34;100.00;100837.69;5109193;28;20059;-84
2021/07/26 00:02:46;;;;;;;18.05;15.48;;;;;;;17.22;100.00;100824.13;5058694;28;20489;-82
2021/07/26 00:05:12;;;;;;;18.10;13.70;;;;;;;17.21;100.00;100825.13;5076156;28;20047;-81
2021/07/26 00:07:38;;;;;;;15.77;13.57;;;;;;;17.23;100.00;100820.44;5059088;28;20035;-83
2021/07/26 00:10:04;;;;;;;16.83;14.32;;;;;;;17.22;100.00;100817.00;5062525;28;20508;-84
2021/07/26 00:12:31;;;;;;;18.27;13.77;;;;;;;17.18;100.00;100821.03;5081089;28;20111;-83
2021/07/26 00:14:56;;;;;;;19.10;15.02;;;;;;;17.19;100.00;100827.97;5099259;28;20495;-85
2021/07/26 00:17:22;;;;;;;21.38;14.60;;;;;;;17.15;100.00;100834.66;5079208;28;20142;-84
2021/07/26 00:19:47;;;;;;;17.70;14.50;;;;;;;17.13;100.00;100837.47;5086206;28;20028;-85
2021/07/26 00:22:13;;;;;;;19.23;14.32;;;;;;;17.07;100.00;100835.59;5059272;28;20071;-82
2021/07/26 00:24:38;;;;;;;17.67;14.63;;;;;;;17.09;100.00;100841.50;5064900;28;20513;-81
2021/07/26 00:27:09;;;;;;;21.48;14.35;;;;;;;17.04;100.00;100830.66;5073272;28;20059;-79
2021/07/26 00:29:34;;;;;;;20.25;14.45;;;;;;;17.03;100.00;100834.31;5060674;28;20031;-82
2021/07/26 00:32:00;;;;;;;20.85;15.25;;;;;;;17.09;100.00;100843.34;5060068;28;20500;-83
2021/07/26 00:34:26;;;;;;;19.35;15.25;;;;;;;17.11;100.00;100842.16;5069628;28;20034;-82
2021/07/26 00:36:54;;;;;;;24.23;16.35;;;;;;;17.10;100.00;100847.63;5078668;27;20040;-85
2021/07/26 00:39:29;;;;;;;22.60;16.25;;;;;;;17.15;100.00;100852.38;5066482;28;20039;-84
2021/07/26 00:41:56;;;;;;;18.30;15.00;;;;;;;17.14;100.00;100846.28;5070427;28;20431;-84
2021/07/26 00:44:23;;;;;;;22.50;15.25;;;;;;;17.11;100.00;100838.69;5070628;28;20488;-81
2021/07/26 00:46:51;;;;;;;19.15;15.27;;;;;;;17.10;100.00;100835.22;5076703;28;20035;-82
2021/07/26 00:49:18;;;;;;;19.42;14.73;;;;;;;17.03;100.00;100829.03;5060884;28;20393;-85
2021/07/26 00:51:47;;;;;;;18.20;14.32;;;;;;;17.00;100.00;100826.72;5086372;28;20115;-80
2021/07/26 00:54:15;;;;;;;15.70;13.20;;;;;;;16.99;100.00;100832.22;5074832;28;20031;-83
2021/07/26 00:56:41;;;;;;;17.88;15.05;;;;;;;16.95;100.00;100833.59;5060034;28;20032;-84
2021/07/26 00:59:08;;;;;;;17.17;14.68;;;;;;;16.89;100.00;100837.81;5072900;28;20109;-85
2021/07/26 01:01:34;;;;;;;18.33;14.20;;;;;;;16.84;100.00;100833.09;5058477;28;20020;-84
2021/07/26 01:03:59;;;;;;;15.95;13.90;;;;;;;16.81;100.00;100837.91;5060706;28;20036;-82
2021/07/26 01:06:25;;;;;;;19.40;14.57;;;;;;;16.82;100.00;100831.56;5058904;28;20046;-79
2021/07/26 01:08:51;;;;;;;20.17;14.95;;;;;;;16.79;100.00;100830.13;5077766;28;20031;-82
2021/07/26 01:11:16;;;;;;;17.35;14.70;;;;;;;16.79;100.00;100831.97;5060774;28;20233;-80
2021/07/26 01:13:42;;;;;;;17.98;15.13;;;;;;;16.79;100.00;100842.56;5057586;28;20039;-82
2021/07/26 01:16:08;;;;;;;19.02;15.63;;;;;;;16.79;100.00;100845.22;5076835;28;20451;-82
2021/07/26 01:18:35;;;;;;;18.77;15.88;;;;;;;16.76;100.00;100845.56;5086301;28;20103;-82
2021/07/26 01:21:05;;;;;;;20.50;15.48;;;;;;;16.74;100.00;100851.03;5076208;28;20034;-81
2021/07/26 01:23:39;;;;;;;20.90;16.92;;;;;;;16.73;100.00;100849.41;5058564;28;20573;-86
2021/07/26 01:26:06;;;;;;;19.95;16.95;;;;;;;16.70;100.00;100861.19;5083753;28;20089;-84
2021/07/26 01:28:34;;;;;;;19.30;15.30;;;;;;;16.71;100.00;100862.84;5054766;28;20488;-84
2021/07/26 01:31:01;;;;;;;23.13;18.17;;;;;;;16.71;100.00;100860.19;5077531;28;20032;-81
2021/07/26 01:33:27;;;;;;;21.75;17.95;;;;;;;16.70;100.00;100861.19;5057600;28;20042;-83
2021/07/26 01:35:52;;;;;;;23.80;18.65;;;;;;;16.72;100.00;100858.34;5066989;28;20180;-83
2021/07/26 01:38:18;;;;;;;25.40;21.17;;;;;;;16.84;100.00;100866.69;5076194;28;20454;-84
2021/07/26 01:40:49;;;;;;;24.75;20.67;;;;;;;16.87;100.00;100864.47;5077767;28;20246;-86
2021/07/26 01:43:15;;;;;;;25.15;19.10;;;;;;;16.85;100.00;100866.50;5073253;28;20057;-84
2021/07/26 01:45:47;;;;;;;25.52;18.67;;;;;;;16.85;100.00;100860.38;5057810;28;20036;-82
2021/07/26 01:48:27;;;;;;;25.90;20.40;;;;;;;16.84;100.00;100866.69;5076075;28;20396;-84
2021/07/26 01:50:57;;;;;;;25.35;19.83;;;;;;;16.86;100.00;100860.22;5067851;28;20076;-83
2021/07/26 01:53:23;;;;;;;25.95;20.90;;;;;;;16.82;100.00;100863.38;5047496;28;20059;-82
2021/07/26 01:55:49;;;;;;;24.35;19.45;;;;;;;16.82;100.00;100868.66;5060849;28;20437;-84
2021/07/26 01:58:15;;;;;;;26.13;19.05;;;;;;;16.72;100.00;100863.66;5071972;28;20039;-84
2021/07/26 02:00:41;;;;;;;22.15;18.65;;;;;;;16.77;100.00;100876.34;5059367;28;20054;-84
2021/07/26 02:03:06;;;;;;;23.88;19.83;;;;;;;16.74;100.00;100874.88;5077101;28;20479;-83
2021/07/26 02:05:32;;;;;;;24.95;20.00;;;;;;;16.74;100.00;100873.06;5075439;28;20489;-80
2021/07/26 02:07:57;;;;;;;25.50;19.67;;;;;;;16.73;100.00;100876.72;5081848;28;20529;-84
2021/07/26 02:10:23;;;;;;;23.55;18.98;;;;;;;16.71;100.00;100876.09;5060266;28;20031;-83
2021/07/26 02:12:48;;;;;;;25.67;20.00;;;;;;;16.74;100.00;100883.66;5077138;28;20109;-82
2021/07/26 02:15:14;;;;;;;22.65;19.23;;;;;;;16.65;100.00;100882.13;5077671;28;20036;-83
2021/07/26 02:17:39;;;;;;;21.95;17.95;;;;;;;16.65;100.00;100886.56;5076448;28;20035;-82
2021/07/26 02:20:05;;;;;;;24.50;19.75;;;;;;;16.65;100.00;100883.91;5095543;28;20038;-82
2021/07/26 02:22:31;;;;;;;25.75;19.58;;;;;;;16.68;100.00;100875.63;5076153;28;20023;-83
2021/07/26 02:24:57;;;;;;;24.35;19.50;;;;;;;16.66;100.00;100877.63;5060834;28;20373;-83
2021/07/26 02:27:23;;;;;;;23.00;18.63;;;;;;;16.61;100.00;100878.16;5059458;28;20051;-82
2021/07/26 02:29:49;;;;;;;22.02;18.00;;;;;;;16.66;100.00;100880.28;5072414;28;20081;-81
2021/07/26 02:32:15;;;;;;;22.63;18.15;;;;;;;16.66;100.00;100880.28;5094403;28;20027;-82
2021/07/26 02:34:40;;;;;;;25.13;18.48;;;;;;;16.71;100.00;100876.09;5082651;28;20072;-83
2021/07/26 02:37:06;;;;;;;23.08;18.17;;;;;;;16.69;100.00;100869.34;5064733;28;20038;-83
2021/07/26 02:39:31;;;;;;;23.17;18.60;;;;;;;16.74;100.00;100877.53;5063983;28;20123;-84
2021/07/26 02:41:57;;;;;;;22.73;19.08;;;;;;;16.80;100.00;100879.47;5095207;28;20038;-86
2021/07/26 02:44:23;;;;;;;23.77;18.83;;;;;;;16.76;100.00;100866.75;5062601;28;20020;-83
2021/07/26 02:46:48;;;;;;;21.65;18.23;;;;;;;16.71;100.00;100867.31;5080303;28;20070;-82
2021/07/26 02:49:13;;;;;;;23.25;19.50;;;;;;;16.67;100.00;100880.09;5076085;28;20034;-83
2021/07/26 02:51:39;;;;;;;20.63;17.15;;;;;;;16.59;100.00;100885.47;5066105;28;20044;-82
2021/07/26 02:54:05;;;;;;;21.65;17.70;;;;;;;16.53;100.00;100875.63;5060668;28;20031;-82
2021/07/26 02:56:31;;;;;;;22.70;17.83;;;;;;;16.52;100.00;100877.47;5074145;28;20132;-82
2021/07/26 02:58:56;;;;;;;20.70;17.88;;;;;;;16.49;100.00;100869.88;5063772;28;20034;-83
2021/07/26 03:01:22;;;;;;;21.95;18.23;;;;;;;16.45;100.00;100873.88;5096969;28;20397;-83
2021/07/26 03:03:47;;;;;;;21.83;18.60;;;;;;;16.46;100.00;100883.50;5070768;28;20101;-83
2021/07/26 03:06:19;;;;;;;21.70;17.58;;;;;;;16.49;100.00;100884.94;5063190;28;20035;-83
2021/07/26 03:08:45;;;;;;;20.48;17.27;;;;;;;16.49;100.00;100880.47;5062247;28;20641;-84
2021/07/26 03:11:12;;;;;;;20.75;17.42;;;;;;;16.46;100.00;100885.28;5095562;28;20090;-83
2021/07/26 03:13:42;;;;;;;21.08;16.73;;;;;;;16.47;100.00;100892.25;5062833;28;20028;-83
2021/07/26 03:16:10;;;;;;;25.58;19.00;;;;;;;16.45;100.00;100889.78;5080101;28;20039;-83
2021/07/26 03:18:36;;;;;;;23.00;18.35;;;;;;;16.43;100.00;100889.13;5077738;28;20028;-82
2021/07/26 03:21:02;;;;;;;22.25;18.33;;;;;;;16.43;100.00;100894.44;5097025;28;20512;-83
2021/07/26 03:23:28;;;;;;;23.25;18.92;;;;;;;16.42;100.00;100890.13;5071183;28;20059;-83
2021/07/26 03:25:54;;;;;;;24.67;19.30;;;;;;;16.35;100.00;100884.75;5069534;28;20051;-83
2021/07/26 03:28:19;;;;;;;21.42;18.83;;;;;;;16.38;100.00;100894.13;5079545;28;20032;-83
2021/07/26 03:30:45;;;;;;;27.75;19.92;;;;;;;16.37;100.00;100883.72;5061714;28;20096;-83
2021/07/26 03:33:12;;;;;;;23.50;20.08;;;;;;;16.34;100.00;100882.28;5076815;28;20071;-82
2021/07/26 03:35:38;;;;;;;22.52;18.50;;;;;;;16.34;100.00;100883.09;5064433;28;20055;-81
2021/07/26 03:38:07;;;;;;;21.13;18.33;;;;;;;16.35;100.00;100887.41;5057355;28;20493;-83
2021/07/26 03:40:34;;;;;;;21.27;17.85;;;;;;;16.31;100.00;100879.97;5058790;28;20036;-83
2021/07/26 03:43:01;;;;;;;23.50;18.83;;;;;;;16.35;100.00;100892.69;5093066;28;20115;-82
2021/07/26 03:45:28;;;;;;;22.80;18.48;;;;;;;16.34;100.00;100882.28;5103890;28;20055;-82
2021/07/26 03:47:56;;;;;;;21.13;18.30;;;;;;;16.45;100.00;100894.25;5071888;28;20031;-82
2021/07/26 03:50:22;;;;;;;23.33;18.63;;;;;;;16.45;100.00;100895.06;5079652;28;20600;-82
2021/07/26 03:52:53;;;;;;;22.50;19.73;;;;;;;16.51;100.00;100901.47;5064070;28;20433;-81
2021/07/26 03:55:30;;;;;;;22.90;19.75;;;;;;;16.53;100.00;100894.16;5059092;28;20028;-83
2021/07/26 03:57:58;;;;;;;23.40;19.70;;;;;;;16.57;100.00;100890.13;5054747;28;20067;-81
2021/07/26 04:00:26;;;;;;;24.95;20.02;;;;;;;16.63;100.00;100891.22;5066955;28;20463;-82
2021/07/26 04:03:21;;;;;;;21.52;19.00;;;;;;;16.70;100.00;100890.31;5095708;28;20036;-82
2021/07/26 04:05:43;;;;;;;22.58;19.60;;;;;;;16.76;100.00;100894.06;5095236;28;20511;-82
2021/07/26 04:08:26;;;;;;;29.25;22.90;;;;;;;16.96;100.00;100898.84;5062154;28;20031;-81
2021/07/26 04:11:01;;;;;;;22.50;19.80;;;;;;;17.03;100.00;100903.22;5076474;28;20513;-83
2021/07/26 04:13:26;;;;;;;24.13;20.70;;;;;;;17.11;100.00;100903.09;5052668;28;20067;-82
2021/07/26 04:15:52;;;;;;;24.80;21.55;;;;;;;17.18;100.00;100891.75;5112251;28;20059;-83
2021/07/26 04:18:18;;;;;;;27.75;22.63;;;;;;;17.20;100.00;100900.38;5047072;28;20097;-81
2021/07/26 04:20:43;;;;;;;27.58;22.13;;;;;;;17.29;100.00;100899.22;5062869;28;20573;-82
2021/07/26 04:23:10;;;;;;;29.35;21.90;;;;;;;17.37;100.00;100893.81;5075413;28;20023;-82
2021/07/26 04:25:35;;;;;;;26.42;22.15;;;;;;;17.47;100.00;100894.31;5091881;28;20050;-81
2021/07/26 04:28:01;;;;;;;26.33;20.80;;;;;;;17.50;100.00;100893.16;5079451;28;20023;-82
2021/07/26 04:30:38;;;;;;;28.13;21.98;;;;;;;17.64;100.00;100896.75;5069945;28;20031;-83
2021/07/26 04:33:03;;;;;;;23.98;21.00;;;;;;;17.69;100.00;100907.63;5055774;28;20034;-81
2021/07/26 04:35:29;;;;;;;24.02;21.40;;;;;;;17.74;100.00;100905.19;5062131;28;20027;-82
2021/07/26 04:37:54;;;;;;;24.17;21.25;;;;;;;17.80;100.00;100904.44;5082421;28;20031;-82
2021/07/26 04:40:20;;;;;;;23.60;21.08;;;;;;;17.88;100.00;100901.69;5078627;28;20059;-83
2021/07/26 04:42:46;;;;;;;22.50;20.08;;;;;;;17.95;100.00;100895.59;5079363;28;20501;-83
2021/07/26 04:45:12;;;;;;;25.08;20.52;;;;;;;18.01;100.00;100903.63;5093474;28;20076;-81
2021/07/26 04:47:37;;;;;;;25.27;20.38;;;;;;;18.06;100.00;100895.94;5079610;28;20118;-85
2021/07/26 04:50:04;;;;;;;21.60;19.00;;;;;;;18.05;100.00;100890.81;5097031;28;20488;-82
2021/07/26 04:52:30;;;;;;;24.67;20.33;;;;;;;18.12;100.00;100894.34;5079697;28;20023;-80
2021/07/26 04:54:56;;;;;;;27.02;20.35;;;;;;;18.16;100.00;100895.59;5062564;28;20047;-80
2021/07/26 04:57:40;;;;;;;24.80;20.02;;;;;;;18.18;100.00;100893.56;5099327;28;20047;-82
2021/07/26 05:00:07;;;;;;;23.65;19.30;;;;;;;18.19;100.00;100886.41;5096559;28;20028;-82
2021/07/26 05:02:32;;;;;;;24.10;19.52;;;;;;;18.22;100.00;100883.38;5077019;28;20065;-83
2021/07/26 05:04:58;;;;;;;22.80;19.50;;;;;;;18.24;100.00;100876.03;5071051;28;20043;-82
2021/07/26 05:07:23;;;;;;;24.88;20.00;;;;;;;18.24;100.00;100881.34;5086143;28;20077;-82
2021/07/26 05:09:48;;;;;;;27.13;20.95;;;;;;;18.30;100.00;100899.16;5063298;28;20047;-83
2021/07/26 05:12:15;;;;;;;22.90;19.48;;;;;;;18.34;100.00;100892.44;5087442;28;20039;-82
2021/07/26 05:14:47;;;;;;;24.63;19.88;;;;;;;18.40;100.00;100893.50;5074704;28;20073;-82
2021/07/26 05:17:17;;;;;;;24.23;20.48;;;;;;;18.46;100.00;100904.19;5075101;28;20031;-83
2021/07/26 05:19:42;;;;;;;27.30;20.58;;;;;;;18.53;100.00;100906.84;5074223;28;20034;-83
2021/07/26 05:22:08;;;;;;;23.75;21.05;;;;;;;18.61;100.00;100897.91;5053984;28;20032;-83
2021/07/26 05:24:34;;;;;;;24.73;20.45;;;;;;;18.56;100.00;100901.16;5093545;28;20150;-82
2021/07/26 05:27:01;;;;;;;25.38;19.95;;;;;;;18.52;100.00;100891.16;5060977;28;20039;-82
2021/07/26 05:29:27;;;;;;;22.55;19.77;;;;;;;18.59;100.00;100895.47;5058160;28;20028;-81
2021/07/26 05:31:53;;;;;;;23.88;20.00;;;;;;;18.64;99.87;100898.34;5062613;28;20032;-83
2021/07/26 05:34:18;;;;;;;22.30;19.05;;;;;;;18.61;99.31;100901.41;5059918;28;20036;-83
2021/07/26 05:36:44;;;;;;;25.25;20.00;;;;;;;18.59;99.71;100906.09;5081225;28;20124;-84
2021/07/26 05:39:09;;;;;;;23.02;19.73;;;;;;;18.59;99.61;100905.25;5061811;28;20072;-83
2021/07/26 05:41:35;;;;;;;26.02;19.65;;;;;;;18.60;99.73;100899.75;5067200;28;20393;-83
2021/07/26 05:44:01;;;;;;;27.88;20.00;;;;;;;18.64;100.00;100905.50;5094757;28;20036;-83
2021/07/26 05:46:26;;;;;;;25.17;19.67;;;;;;;18.66;99.75;100903.47;5056974;28;20028;-79
2021/07/26 05:48:52;;;;;;;22.80;19.90;;;;;;;18.67;100.00;100907.78;5054687;28;20042;-84
2021/07/26 05:51:17;;;;;;;22.52;19.27;;;;;;;18.75;100.00;100912.09;5066318;28;20039;-84
2021/07/26 05:53:43;;;;;;;22.67;19.40;;;;;;;18.83;100.00;100915.44;5055747;28;20036;-84
2021/07/26 05:56:11;;;;;;;23.38;18.75;;;;;;;18.86;100.00;100916.91;5075169;28;20046;-83
2021/07/26 05:58:42;;;;;;;23.27;19.52;;;;;;;18.86;100.00;100906.28;5077825;28;20031;-83
2021/07/26 06:03:50;;;;;;;22.65;19.50;;;;;;;19.00;99.98;100907.13;5099548;28;20057;-84
2021/07/26 06:06:16;;;;;;;25.10;18.67;;;;;;;19.05;99.59;100908.19;5060359;28;20036;-82
2021/07/26 06:08:42;;;;;;;28.65;18.98;;;;;;;19.14;98.92;100900.06;5057409;28;20035;-84
2021/07/26 06:11:07;;;;;;;21.83;17.52;;;;;;;19.18;98.97;100898.63;5075797;28;20043;-84
2021/07/26 06:13:33;;;;;;;24.25;17.25;;;;;;;19.25;99.48;100897.63;5097843;28;20039;-84
2021/07/26 06:15:58;;;;;;;19.42;16.20;;;;;;;19.40;99.86;100896.63;5064875;28;20039;-84
2021/07/26 06:18:26;;;;;;;19.50;16.35;;;;;;;19.62;98.49;100892.78;5081640;28;20434;-84
2021/07/26 06:20:52;;;;;;;19.00;16.00;;;;;;;19.90;95.31;100889.16;5064805;28;20027;-84
2021/07/26 06:23:20;;;;;;;19.10;15.18;;;;;;;20.22;90.97;100892.81;5065361;28;20477;-84
2021/07/26 06:25:45;;;;;;;23.15;15.43;;;;;;;20.65;89.16;100894.22;5070300;28;20035;-84
2021/07/26 06:28:11;;;;;;;15.93;13.35;;;;;;;21.00;87.15;100894.72;5072052;28;20039;-84
2021/07/26 06:30:36;;;;;;;15.82;12.77;;;;;;;21.36;83.15;100906.66;5095468;28;20027;-82
2021/07/26 06:33:02;;;;;;;14.48;11.88;;;;;;;21.47;80.89;100881.13;5097738;28;20097;-81
2021/07/26 06:35:28;;;;;;;14.32;11.00;;;;;;;21.74;79.84;100900.47;5076003;28;20036;-82
2021/07/26 06:37:53;;;;;;;17.80;11.75;;;;;;;21.83;80.91;100889.53;5074968;28;20512;-80
2021/07/26 06:40:18;;;;;;;17.50;11.70;;;;;;;22.01;80.90;100902.94;5078632;28;20031;-81
2021/07/26 06:42:44;;;;;;;15.65;11.77;;;;;;;22.20;78.69;100900.31;5062489;28;20111;-85
2021/07/26 06:45:11;;;;;;;14.60;11.23;;;;;;;22.29;79.46;100907.03;5097305;28;20032;-82
2021/07/26 06:47:36;;;;;;;16.17;11.07;;;;;;;22.32;78.66;100915.44;5093203;28;20028;-82
2021/07/26 06:50:04;;;;;;;13.77;10.32;;;;;;;22.32;78.60;100919.94;5091392;28;20405;-82
2021/07/26 06:52:29;;;;;;;13.90;10.10;;;;;;;22.22;79.53;100916.94;5074929;28;20038;-82
2021/07/26 06:54:55;;;;;;;15.70;10.23;;;;;;;22.24;81.50;100914.84;5082571;28;20123;-82
2021/07/26 06:57:20;;;;;;;15.30;9.55;;;;;;;22.32;80.50;100922.59;5053114;28;20032;-81
2021/07/26 06:59:46;;;;;;;13.57;9.68;;;;;;;22.40;82.98;100932.22;5076804;28;20036;-82
2021/07/26 07:02:14;;;;;;;14.52;9.02;;;;;;;22.41;80.45;100929.31;5070274;28;20063;-82
2021/07/26 07:04:40;;;;;;;13.05;9.20;;;;;;;22.44;83.01;100928.88;5062236;28;20046;-84
2021/07/26 07:07:06;;;;;;;10.48;8.93;;;;;;;22.53;84.61;100929.41;5091160;28;20036;-85
2021/07/26 07:09:32;;;;;;;14.95;7.95;;;;;;;22.78;77.39;100925.88;5053632;28;20457;-79
2021/07/26 07:11:58;;;;;;;12.35;7.32;;;;;;;22.97;73.97;100930.16;5060612;28;20043;-84
2021/07/26 07:14:23;;;;;;;9.57;7.18;;;;;;;23.05;73.25;100927.19;5076322;28;20040;-82
2021/07/26 07:16:49;;;;;;;14.70;6.93;;;;;;;23.07;70.54;100930.47;5058827;28;20031;-83
2021/07/26 07:19:14;;;;;;;10.18;7.07;;;;;;;23.19;70.13;100925.19;5060344;28;20077;-83
2021/07/26 07:21:40;;;;;;;10.30;6.50;;;;;;;23.26;71.67;100931.28;5062208;28;20106;-82
2021/07/26 07:24:05;;;;;;;9.60;6.25;;;;;;;23.39;70.93;100935.59;5105262;28;20084;-84
2021/07/26 07:26:31;;;;;;;8.77;6.20;;;;;;;23.33;67.37;100931.97;5079871;28;20027;-83
2021/07/26 07:28:57;;;;;;;7.47;5.35;;;;;;;23.38;70.14;100935.84;5077491;28;20031;-82
2021/07/26 07:31:23;;;;;;;7.15;5.30;;;;;;;23.55;67.96;100939.53;5064990;28;20039;-83
2021/07/26 07:33:50;;;;;;;6.95;5.85;;;;;;;23.67;66.66;100937.69;5077232;28;20039;-83
2021/07/26 07:36:15;;;;;;;11.40;6.70;;;;;;;23.53;67.66;100936.25;5082642;28;20060;-82
2021/07/26 07:38:41;;;;;;;10.30;5.65;;;;;;;23.33;68.66;100947.22;5060644;28;20039;-82
2021/07/26 07:41:06;;;;;;;7.15;5.63;;;;;;;23.23;70.34;100952.31;5076422;28;20040;-83
2021/07/26 07:43:32;;;;;;;11.30;5.47;;;;;;;23.09;73.68;100957.84;5060148;28;20087;-83
2021/07/26 07:45:58;;;;;;;8.40;5.70;;;;;;;22.96;75.63;100959.78;5054260;28;20066;-80
2021/07/26 07:48:25;;;;;;;6.70;5.32;;;;;;;22.85;77.28;100958.69;5059116;28;20040;-81
2021/07/26 07:50:52;;;;;;;8.55;5.28;;;;;;;22.68;78.86;100961.16;5050694;28;20508;-82
2021/07/26 07:53:18;;;;;;;7.68;5.30;;;;;;;22.57;78.80;100964.56;5061524;28;20032;-81
2021/07/26 07:55:43;;;;;;;10.95;5.53;;;;;;;22.42;78.79;100956.88;5076185;28;20050;-82
2021/07/26 07:58:09;;;;;;;5.63;5.13;;;;;;;22.32;80.75;100957.34;5086478;28;20677;-82
2021/07/26 08:00:35;;;;;;;9.82;5.40;;;;;;;22.22;81.58;100951.66;5095585;28;20034;-83
2021/07/26 08:03:00;;;;;;;6.35;5.43;;;;;;;22.15;82.13;100951.69;5062345;28;20030;-81
2021/07/26 08:05:27;;;;;;;10.32;6.07;;;;;;;22.11;79.06;100955.84;5095277;28;20485;-82
2021/07/26 08:07:53;;;;;;;9.10;5.80;;;;;;;22.16;82.16;100959.50;5066640;28;20027;-83
2021/07/26 08:10:19;;;;;;;7.35;5.70;;;;;;;22.04;84.18;100950.56;5076954;28;20122;-84
2021/07/26 08:12:44;;;;;;;8.43;6.15;;;;;;;22.03;83.73;100956.13;5062606;28;20093;-82
2021/07/26 08:15:10;;;;;;;7.32;4.95;;;;;;;21.92;84.55;100962.97;5078716;28;20055;-84
2021/07/26 08:17:44;;;;;;;10.82;7.13;;;;;;;21.87;81.47;100960.13;5061635;28;20077;-81
2021/07/26 08:20:11;;;;;;;9.85;7.25;;;;;;;21.83;83.07;100974.94;5061940;28;20133;-81
2021/07/26 08:22:38;;;;;;;13.02;7.32;;;;;;;21.76;85.38;100986.50;5068386;28;20460;-80
2021/07/26 08:25:05;;;;;;;13.68;8.05;;;;;;;21.74;86.48;100993.91;5078041;28;20516;-79
2021/07/26 08:27:31;;;;;;;16.98;9.20;;;;;;;21.64;86.84;100988.19;5058786;28;20051;-83
2021/07/26 08:29:56;;;;;;;12.65;9.60;;;;;;;21.46;87.36;100969.44;5068434;28;20035;-84
2021/07/26 08:32:22;;;;;;;11.65;9.23;;;;;;;21.49;88.95;100977.84;5077092;28;20048;-83
2021/07/26 08:34:48;;;;;;;13.43;9.63;;;;;;;21.47;88.32;100985.22;5077742;28;20092;-83
2021/07/26 08:37:13;;;;;;;10.45;8.82;;;;;;;21.44;91.64;100993.66;5078183;28;20033;-83
2021/07/26 08:39:39;;;;;;;10.40;8.77;;;;;;;21.37;93.62;100990.97;5051582;28;20438;-84
2021/07/26 08:42:05;;;;;;;11.23;8.75;;;;;;;21.39;93.40;100991.56;5074464;28;20036;-82
2021/07/26 08:44:33;;;;;;;13.02;8.65;;;;;;;21.37;91.20;100992.81;5062588;28;20474;-82
2021/07/26 08:47:02;;;;;;;14.38;9.68;;;;;;;21.31;93.05;100983.81;5091777;28;20039;-83
2021/07/26 08:49:28;;;;;;;13.10;9.57;;;;;;;21.30;91.52;100979.50;5066715;28;20128;-82
2021/07/26 08:51:56;;;;;;;11.10;9.80;;;;;;;21.21;92.35;100970.13;5077375;28;20066;-83
2021/07/26 08:54:27;;;;;;;10.40;9.40;;;;;;;21.10;94.19;100957.44;5074165;28;20066;-82
2021/07/26 08:56:53;;;;;;;15.43;10.07;;;;;;;21.17;96.21;100968.88;5076972;28;20113;-83
2021/07/26 08:59:19;;;;;;;13.60;9.77;;;;;;;21.13;94.14;100971.16;5052376;28;20601;-81
2021/07/26 09:01:47;;;;;;;10.48;9.30;;;;;;;21.03;94.96;100978.78;5051690;28;20123;-84
2021/07/26 09:04:12;;;;;;;11.45;10.25;;;;;;;20.91;94.70;100975.16;5072021;28;20085;-84
2021/07/26 09:06:38;;;;;;;14.20;10.50;;;;;;;20.88;92.66;100983.56;5075802;28;20024;-82
2021/07/26 09:09:03;;;;;;;12.15;9.57;;;;;;;20.80;93.49;100993.41;5092680;28;20024;-83
2021/07/26 09:11:45;;;;;;;14.82;10.63;;;;;;;20.75;93.28;101006.53;5073253;28;20555;-81
2021/07/26 09:14:31;;;;;;;14.90;10.00;;;;;;;20.66;93.30;101014.97;5070741;28;20042;-82
2021/07/26 09:16:57;;;;;;;15.50;10.48;;;;;;;20.66;95.10;101018.44;5077321;28;20122;-82
2021/07/26 09:19:22;;;;;;;11.43;9.38;;;;;;;20.54;93.40;101017.41;5060911;28;20176;-83
2021/07/26 09:21:50;;;;;;;14.55;9.32;;;;;;;20.48;93.69;101015.56;5092631;28;20028;-82
2021/07/26 09:24:22;;;;;;;15.43;10.43;;;;;;;20.43;96.93;101013.50;5086947;28;20059;-81
2021/07/26 09:26:47;;;;;;;12.43;9.85;;;;;;;20.48;98.87;101010.25;5077997;28;20028;-83
2021/07/26 09:29:24;;;;;;;12.43;10.10;;;;;;;20.47;98.63;101006.72;5078260;28;20032;-84
2021/07/26 09:32:01;;;;;;;12.98;9.80;;;;;;;20.52;97.37;101008.81;5060637;28;20023;-82
2021/07/26 09:34:27;;;;;;;10.23;9.05;;;;;;;20.59;96.16;101010.44;5065587;28;20024;-83
2021/07/26 09:36:53;;;;;;;13.00;8.88;;;;;;;20.63;96.57;101020.72;5053472;28;20032;-80
2021/07/26 09:39:27;;;;;;;11.27;9.30;;;;;;;20.59;96.13;101026.41;5062255;28;20039;-82
2021/07/26 09:41:53;;;;;;;10.77;8.15;;;;;;;20.56;93.32;101031.34;5075508;28;20031;-81
2021/07/26 09:44:24;;;;;;;11.50;7.53;;;;;;;20.45;92.56;101035.44;5077076;28;20032;-83
2021/07/26 09:46:50;;;;;;;13.05;8.18;;;;;;;20.37;92.67;101036.47;5098073;28;20500;-83
2021/07/26 09:49:20;;;;;;;9.68;8.30;;;;;;;20.31;93.43;101039.13;5061566;28;20023;-83
2021/07/26 09:52:08;;;;;;;11.02;8.43;;;;;;;20.21;94.11;101040.34;5077164;28;20439;-83
2021/07/26 09:54:41;;;;;;;11.57;8.07;;;;;;;20.11;94.00;101047.09;5064447;28;20038;-83
2021/07/26 09:57:24;;;;;;;11.55;7.90;;;;;;;20.08;95.37;101050.97;5062982;28;20032;-82
2021/07/26 09:59:51;;;;;;;11.57;7.60;;;;;;;20.13;94.01;101045.03;5064390;28;20065;-83
2021/07/26 10:02:18;;;;;;;13.48;8.10;;;;;;;20.12;94.55;101048.72;5089644;28;20020;-82
2021/07/26 10:04:46;;;;;;;10.13;7.28;;;;;;;20.04;93.15;101057.69;5102515;28;20056;-82
2021/07/26 10:07:13;;;;;;;8.38;6.72;;;;;;;19.98;93.56;101051.34;5064480;28;20074;-81
2021/07/26 10:09:42;;;;;;;11.57;7.50;;;;;;;20.00;95.45;101061.78;5061936;28;20462;-82
2021/07/26 10:12:12;;;;;;;13.60;7.60;;;;;;;19.84;94.64;101055.00;5050136;28;20104;-82
2021/07/26 10:14:38;;;;;;;10.52;7.47;;;;;;;19.77;95.53;101065.63;5051968;28;20050;-81
2021/07/26 10:17:03;;;;;;;11.45;7.32;;;;;;;19.79;95.57;101065.41;5095537;28;20481;-81
2021/07/26 10:19:29;;;;;;;9.52;7.20;;;;;;;19.74;94.72;101074.03;5079163;28;20028;-82
2021/07/26 10:21:56;;;;;;;9.45;7.47;;;;;;;19.81;96.40;101069.50;5077820;28;20540;-81
2021/07/26 10:24:29;;;;;;;9.50;7.15;;;;;;;19.93;96.35;101064.47;5077812;28;20039;-82
2021/07/26 10:26:58;;;;;;;10.82;7.18;;;;;;;20.11;95.32;101063.06;5081148;28;20035;-79
2021/07/26 10:29:51;;;;;;;7.32;5.57;;;;;;;20.39;92.29;101065.56;5067314;28;20035;-83
2021/07/26 10:32:43;;;;;;;;;;;;;;;20.63;88.82;101055.38;5087130;28;20042;-81
2021/07/26 10:35:17;;;;;;;9.05;5.53;;;;;;;20.84;89.86;101054.31;5071118;28;20411;-81
2021/07/26 10:37:48;;;;;;;13.27;5.90;;;;;;;20.92;90.31;101052.25;5097159;28;20459;-81
2021/07/26 10:40:16;;;;;;;6.75;5.50;;;;;;;20.93;90.30;101056.56;5073182;28;20077;-80
2021/07/26 10:42:42;;;;;;;7.05;5.13;;;;;;;20.93;87.44;101047.75;5080494;28;20443;-81
2021/07/26 10:45:08;;;;;;;8.02;5.00;;;;;;;20.80;87.64;101038.72;5082278;28;20040;-82
2021/07/26 10:47:33;;;;;;;5.80;4.57;;;;;;;20.94;87.68;101049.38;5059368;28;20078;-83
2021/07/26 10:50:10;;;;;;;8.50;5.07;;;;;;;20.89;87.87;101049.16;5100836;28;20067;-81
2021/07/26 10:52:37;;;;;;;7.93;5.15;;;;;;;20.85;87.56;101040.78;5066832;28;20042;-82
2021/07/26 10:55:05;;;;;;;8.00;5.10;;;;;;;20.99;90.16;101039.72;5095968;28;20040;-81
2021/07/26 10:57:43;;;;;;;13.73;4.90;;;;;;;21.21;87.00;101034.16;5060118;28;20417;-82
2021/07/26 11:00:12;;;;;;;5.22;4.72;;;;;;;21.48;88.44;101036.75;5114154;28;20042;-83
2021/07/26 11:02:40;;;;;;;7.75;4.90;;;;;;;21.78;85.26;101035.16;5096967;28;20039;-82
2021/07/26 11:05:27;;;;;;;6.30;4.63;;;;;;;22.00;85.73;101032.16;5079811;28;20043;-81
2021/07/26 11:08:14;;;;;;;6.45;4.95;;;;;;;22.60;83.11;101028.25;5062970;28;20462;-84
2021/07/26 11:10:57;;;;;;;7.82;5.10;;;;;;;23.48;76.95;101035.16;5078007;28;20028;-81
2021/07/26 11:13:49;;;;;;;6.35;4.68;;;;;;;24.43;77.29;101025.56;5055662;28;20036;-82